createdAt,value
2022-11-14T00:00:47.898Z,101490.86
2022-11-14T00:05:50.876Z,101485.64
2022-11-14T00:10:53.750Z,101481.12
2022-11-14T00:15:56.886Z,101474.18
2022-11-14T00:20:59.748Z,101475.63
2022-11-14T00:26:02.553Z,101477.20
2022-11-14T00:31:06.028Z,101471.29
2022-11-14T00:36:09.058Z,101473.23
2022-11-14T00:41:11.880Z,101474.80
2022-11-14T00:46:14.678Z,101477.25
2022-11-14T00:51:17.474Z,101471.49
2022-11-14T00:56:20.292Z,101466.79
2022-11-14T01:01:23.134Z,101467.31
2022-11-14T01:06:26.241Z,101470.64
2022-11-14T01:11:29.094Z,101474.00
2022-11-14T01:16:32.011Z,101469.30
2022-11-14T01:21:35.209Z,101457.61
2022-11-14T01:26:38.020Z,101456.23
2022-11-14T01:31:42.430Z,101447.02
2022-11-14T01:36:45.508Z,101440.93
2022-11-14T01:41:48.308Z,101440.08
2022-11-14T01:46:56.768Z,101439.22
2022-11-14T01:52:06.158Z,101431.04
2022-11-14T01:57:11.192Z,101433.66
2022-11-14T02:02:17.486Z,101430.37
2022-11-14T02:07:20.653Z,101426.55
2022-11-14T02:12:24.302Z,101419.59
2022-11-14T02:17:30.067Z,101415.77
2022-11-14T02:22:33.724Z,101415.09
2022-11-14T02:27:39.962Z,101410.05
2022-11-14T02:33:09.449Z,101398.42
2022-11-14T02:38:07.104Z,101392.54
2022-11-14T02:43:09.909Z,101395.32
2022-11-14T02:48:12.785Z,101395.67
2022-11-14T02:53:15.712Z,101394.30
2022-11-14T02:58:18.481Z,101393.27
2022-11-14T03:03:21.244Z,101390.50
2022-11-14T03:08:24.241Z,101391.20
2022-11-14T03:13:30.330Z,101385.30
2022-11-14T03:18:33.461Z,101385.83
2022-11-14T03:23:36.857Z,101378.00
2022-11-14T03:28:40.179Z,101375.56
2022-11-14T03:33:43.012Z,101374.18
2022-11-14T03:38:45.825Z,101369.14
2022-11-14T03:43:48.626Z,101359.60
2022-11-14T03:48:51.472Z,101356.67
2022-11-14T03:53:54.306Z,101351.98
2022-11-14T03:58:57.115Z,101349.04
2022-11-14T04:03:59.974Z,101350.27
2022-11-14T04:09:02.919Z,101341.92
2022-11-14T04:14:05.731Z,101337.39
2022-11-14T04:19:08.548Z,101337.58
2022-11-14T04:24:11.471Z,101335.84
2022-11-14T04:29:14.463Z,101338.96
2022-11-14T04:34:17.264Z,101336.87
2022-11-14T04:39:20.151Z,101335.48
2022-11-14T04:44:22.947Z,101333.75
2022-11-14T04:49:25.711Z,101332.87
2022-11-14T04:54:28.440Z,101332.89
2022-11-14T04:59:31.202Z,101328.36
2022-11-14T05:04:33.967Z,101325.72
2022-11-14T05:09:36.954Z,101319.03
2022-11-14T05:14:39.712Z,101316.71
2022-11-14T05:19:42.489Z,101311.30
2022-11-14T05:24:45.261Z,101309.56
2022-11-14T05:29:48.086Z,101306.41
2022-11-14T05:34:50.899Z,101305.17
2022-11-14T05:39:53.736Z,101304.27
2022-11-14T05:44:56.536Z,101300.26
2022-11-14T05:49:59.295Z,101301.48
2022-11-14T05:55:02.473Z,101298.67
2022-11-14T06:00:06.034Z,101298.13
2022-11-14T06:05:09.568Z,101299.48
2022-11-14T06:10:13.618Z,101301.98
2022-11-14T06:15:16.819Z,101297.80
2022-11-14T06:20:19.759Z,101297.26
2022-11-14T06:25:22.552Z,101297.73
2022-11-14T06:30:25.346Z,101295.09
2022-11-14T06:35:28.320Z,101295.25
2022-11-14T06:40:31.212Z,101295.27
2022-11-14T06:45:33.962Z,101298.02
2022-11-14T06:50:36.734Z,101292.09
2022-11-14T06:55:39.559Z,101299.73
2022-11-14T07:00:42.482Z,101297.67
2022-11-14T07:05:47.673Z,101306.55
2022-11-14T07:10:51.029Z,101304.45
2022-11-14T07:16:18.081Z,101308.27
2022-11-14T07:21:21.167Z,101308.58
2022-11-14T07:26:24.333Z,101303.85
2022-11-14T07:31:29.337Z,101305.58
2022-11-14T07:36:33.270Z,101303.98
2022-11-14T07:41:41.414Z,101300.36
2022-11-14T07:46:44.469Z,101294.11
2022-11-14T07:51:47.289Z,101286.45
2022-11-14T07:56:51.149Z,101285.77
2022-11-14T08:01:55.586Z,101289.35
2022-11-14T08:12:43.340Z,101278.48
2022-11-14T08:17:46.509Z,101271.21
2022-11-14T08:22:49.358Z,101262.00
2022-11-14T08:27:53.623Z,101263.98
2022-11-14T08:32:56.506Z,101261.06
2022-11-14T08:38:02.072Z,101250.98
2022-11-14T08:43:07.727Z,101247.92
2022-11-14T08:48:11.840Z,101250.40
2022-11-14T08:53:14.828Z,101245.81
2022-11-14T08:58:17.861Z,101242.04
2022-11-14T09:03:25.489Z,101238.31
2022-11-14T09:08:31.827Z,101240.02
2022-11-14T09:13:35.595Z,101235.52
2022-11-14T09:18:38.464Z,101230.15
2022-11-14T09:23:41.339Z,101229.08
2022-11-14T09:28:49.322Z,101228.91
2022-11-14T09:33:52.347Z,101218.70
2022-11-14T09:38:55.170Z,101209.71
2022-11-14T09:44:22.094Z,101208.49
2022-11-14T09:49:51.331Z,101193.45
2022-11-14T09:55:01.493Z,101190.70
2022-11-14T10:00:23.675Z,101181.23
2022-11-14T10:05:48.391Z,101173.52
2022-11-14T10:11:29.597Z,101163.95
2022-11-14T10:17:05.336Z,101161.48
2022-11-14T10:23:01.326Z,101155.19
2022-11-14T10:28:32.252Z,101149.38
2022-11-14T10:33:56.665Z,101144.24
2022-11-14T10:39:10.978Z,101148.70
2022-11-14T10:44:21.804Z,101137.77
2022-11-14T10:49:25.981Z,101131.31
2022-11-14T10:55:13.572Z,101119.70
2022-11-14T11:00:19.591Z,101117.09
2022-11-14T11:05:30.603Z,101110.66
2022-11-14T11:10:54.223Z,101110.69
2022-11-14T11:16:01.005Z,101106.27
2022-11-14T11:21:12.677Z,101100.17
2022-11-14T11:26:30.965Z,101098.59
2022-11-14T11:31:53.755Z,101097.02
2022-11-14T11:37:17.372Z,101085.38
2022-11-14T11:48:10.296Z,101068.40
2022-11-14T11:53:26.398Z,101059.45
2022-11-14T11:58:46.148Z,101065.88
2022-11-14T12:03:54.528Z,101065.20
2022-11-14T12:09:22.028Z,101057.30
2022-11-14T12:15:06.769Z,101061.67
2022-11-14T12:20:48.143Z,101056.13
2022-11-14T12:26:06.060Z,101053.61
2022-11-14T12:31:14.262Z,101055.19
2022-11-14T12:36:17.403Z,101049.02
2022-11-14T12:41:38.392Z,101048.23
2022-11-14T12:47:03.363Z,101040.73
2022-11-14T12:52:46.933Z,101041.55
2022-11-14T12:58:26.850Z,101041.29
2022-11-14T13:03:49.093Z,101033.89
2022-11-14T13:09:07.266Z,101028.06
2022-11-14T13:14:29.089Z,101029.11
2022-11-14T13:19:50.923Z,101022.67
2022-11-14T13:24:59.697Z,101019.67
2022-11-14T13:30:08.174Z,101023.49
2022-11-14T13:35:37.219Z,101014.48
2022-11-14T13:40:51.349Z,101007.30
2022-11-14T13:46:13.761Z,101000.47
2022-11-14T13:56:59.785Z,100990.79
2022-11-14T14:02:43.840Z,100983.84
2022-11-14T14:07:49.742Z,100979.66
2022-11-14T14:13:10.970Z,100973.42
2022-11-14T14:18:40.219Z,100966.29
2022-11-14T14:23:54.956Z,100960.75
2022-11-14T14:29:13.969Z,100951.32
2022-11-14T14:34:29.242Z,100942.27
2022-11-14T14:39:32.409Z,100941.23
2022-11-14T14:44:40.707Z,100931.27
2022-11-14T14:49:44.621Z,100928.09
2022-11-14T14:54:55.123Z,100924.48
2022-11-14T15:00:01.883Z,100922.45
2022-11-14T15:05:05.436Z,100919.19
2022-11-14T15:10:19.390Z,100918.73
2022-11-14T15:15:25.816Z,100911.31
2022-11-14T15:20:30.429Z,100909.95
2022-11-14T15:25:33.830Z,100909.27
2022-11-14T15:30:36.950Z,100909.80
2022-11-14T15:35:40.446Z,100909.48
2022-11-14T15:40:43.581Z,100907.39
2022-11-14T15:45:46.517Z,100902.20
2022-11-14T15:50:51.001Z,100896.17
2022-11-14T15:55:53.843Z,100888.91
2022-11-14T16:00:56.931Z,100894.46
2022-11-14T16:06:01.955Z,100897.25
2022-11-14T16:11:05.831Z,100893.61
2022-11-14T16:16:08.803Z,100894.48
2022-11-14T16:21:16.512Z,100892.91
2022-11-14T16:26:20.403Z,100888.05
2022-11-14T16:31:24.336Z,100885.79
2022-11-14T16:36:27.750Z,100881.58
2022-11-14T16:41:30.758Z,100876.69
2022-11-14T16:46:33.631Z,100875.65
2022-11-14T16:51:51.938Z,100870.42
2022-11-14T16:56:55.232Z,100865.56
2022-11-14T17:01:58.276Z,100861.05
2022-11-14T17:07:01.243Z,100849.07
2022-11-14T17:12:04.798Z,100847.69
2022-11-14T17:17:07.865Z,100840.92
2022-11-14T17:22:10.988Z,100844.58
2022-11-14T17:27:14.005Z,100845.08
2022-11-14T17:32:17.208Z,100847.34
2022-11-14T17:37:20.113Z,100843.36
2022-11-14T17:42:22.954Z,100843.54
2022-11-14T17:47:25.815Z,100841.63
2022-11-14T17:52:28.605Z,100836.58
2022-11-14T17:57:31.462Z,100828.94
2022-11-14T18:02:34.458Z,100820.43
2022-11-14T18:07:37.355Z,100819.73
2022-11-14T18:12:40.841Z,100815.75
2022-11-14T18:17:43.656Z,100809.33
2022-11-14T18:22:46.733Z,100808.45
2022-11-14T18:27:49.837Z,100805.66
2022-11-14T18:32:52.946Z,100796.85
2022-11-14T18:37:57.725Z,100791.66
2022-11-14T18:43:01.285Z,100782.82
2022-11-14T18:48:04.284Z,100771.75
2022-11-14T18:53:07.495Z,100772.98
2022-11-14T18:58:10.332Z,100769.54
2022-11-14T19:03:14.739Z,100766.97
2022-11-14T19:08:18.611Z,100763.68
2022-11-14T19:13:24.939Z,100762.45
2022-11-14T19:18:27.832Z,100759.09
2022-11-14T19:23:31.163Z,100758.20
2022-11-14T19:28:34.289Z,100753.91
2022-11-14T19:33:40.284Z,100754.33
2022-11-14T19:38:43.400Z,100744.13
2022-11-14T19:43:46.961Z,100742.77
2022-11-14T19:48:49.921Z,100741.05
2022-11-14T19:53:53.512Z,100735.67
2022-11-14T19:58:56.799Z,100739.48
2022-11-14T20:04:01.799Z,100736.88
2022-11-14T20:09:08.056Z,100730.12
2022-11-14T20:14:12.383Z,100732.70
2022-11-14T20:19:16.275Z,100727.32
2022-11-14T20:24:22.604Z,100723.85
2022-11-14T20:29:25.459Z,100720.20
2022-11-14T20:34:28.224Z,100714.64
2022-11-14T20:39:31.121Z,100699.02
2022-11-14T20:44:33.953Z,100690.86
2022-11-14T20:49:36.795Z,100683.73
2022-11-14T20:54:39.762Z,100683.72
2022-11-14T20:59:42.673Z,100680.27
2022-11-14T21:04:45.595Z,100676.27
2022-11-14T21:09:49.019Z,100670.89
2022-11-14T21:14:51.816Z,100665.89
2022-11-14T21:19:54.813Z,100660.37
2022-11-14T21:24:57.640Z,100660.38
2022-11-14T21:30:00.518Z,100655.02
2022-11-14T21:35:09.547Z,100650.55
2022-11-14T21:40:13.239Z,100649.20
2022-11-14T21:45:16.328Z,100648.17
2022-11-14T21:50:19.205Z,100636.23
2022-11-14T21:55:22.326Z,100630.18
2022-11-14T22:00:25.136Z,100631.10
2022-11-14T22:05:27.960Z,100633.02
2022-11-14T22:10:30.957Z,100629.72
2022-11-14T22:15:35.716Z,100624.31
2022-11-14T22:20:38.604Z,100628.48
2022-11-14T22:25:41.487Z,100629.08
2022-11-14T22:30:44.355Z,100631.02
2022-11-14T22:35:47.183Z,100630.68
2022-11-14T22:40:50.049Z,100632.59
2022-11-14T22:45:53.220Z,100629.85
2022-11-14T22:51:20.390Z,100621.73
2022-11-14T22:56:25.642Z,100612.73
2022-11-14T23:01:33.866Z,100610.14
2022-11-14T23:06:37.007Z,100600.27
2022-11-14T23:11:39.896Z,100588.83
2022-11-14T23:16:42.658Z,100579.63
2022-11-14T23:21:45.487Z,100579.79
2022-11-14T23:26:49.752Z,100578.05
2022-11-14T23:31:52.575Z,100575.11
2022-11-14T23:36:55.369Z,100574.75
2022-11-14T23:41:58.160Z,100567.27
2022-11-14T23:47:01.152Z,100558.42
2022-11-14T23:52:04.157Z,100552.36
2022-11-14T23:57:06.965Z,100550.45
